Geyserville, CA (95441)

7:53 PM PDT on August 20, 2014 (GMT -0700)
Canyon Rd. | Change Station
CLOSE
Current Station
Personal Weather Station
Location: Geyserville, CA
Elevation: 459 ft
Nearby Weather Stations

Elev 459 ft 38.70 °N, 122.94 °W | Updated 59 seconds ago

Mostly Cloudy
Mostly Cloudy
64.4 °F
Feels Like 64.4 °F
N
0.0
Wind Variable Wind from SSE
Gusts 0.0 mph

Today
High -- | Low -- °F
--% Chance of Precip.
Yesterday
High -- | Low -- °F
Precip. -- in
6:30 AM 7:59 PM
Waning Crescent, 17% visible
Pressure 29.87 in
Visibility 10.0 miles
Clouds Mostly Cloudy 2000 ft
Dew Point 56 °F
Humidity 74%
Rainfall 0.00 in
Snow Depth Not available.
UV 0 out of 12
Pollen 6.20 out of 12
Air Quality Not available.
Flu Activity Not available.
METAR KSTS 210153Z 20006KT 10SM BKN020 18/13 A2989 RMK AO2 SLP114 T01780133

More Conditions Fewer Conditions

Pressure 29.87 in
Visibility 10.0 miles
Clouds Mostly Cloudy 2000 ft
Dew Point 56 °F
Humidity 74%
Rainfall 0.00 in
Snow Depth Not available.
UV 0 out of 12
Pollen 6.20 out of 12
Air Quality Not available.
Flu Activity Not available.
METAR KSTS 210153Z 20006KT 10SM BKN020 18/13 A2989 RMK AO2 SLP114 T01780133

More Conditions Fewer Conditions

10-Day Weather Forecast

Almanac

Astronomy

Aug. 20, 2014 Rise Set
Actual Time 6:30 AM PDT 7:59 PM PDT
Civil Twilight 6:02 AM PDT 8:26 PM PDT
Nautical Twilight 5:28 AM PDT 9:00 PM PDT
Astronomical Twilight 4:52 AM PDT 9:35 PM PDT
Moon 2:15 AM PDT (8/20) 4:47 PM PDT (8/20)
Length of Visible Light 14h 24m
Length of Day
13h 28m
Tomorrow will be 2m 17s shorter.
Waning Crescent, 17% of the Moon is Illuminated
Today
Waning Crescent
Aug 25
New
Sep 2
First Quarter
Sep 8
Full
Sep 15
Last Quarter

Today's Extremes

State Highs State Lows

Community

WunderPhotos

Upload Photos

1,745,839 photos uploaded!

WunderBlogs® & News

By Dr. Jeff Masters
Director of Meteorology, Weather Underground
By Kari Strenfel
Meteorologist, Weather Underground
By Christopher C. Burt
Weather Historian, Weather Underground
August 20, 2014
August 20, 2014
August 20, 2014

Nearby

Air Quality

  Air Quality AQ Index Pollutant
Wednesday Good
PM2.5
Thursday Good
PM2.5
Friday Good
PM2.5
Saturday Moderate
PM2.5
Sunday Moderate
PM2.5
Monday Moderate
PM2.5

Snow Depth

Station Depth Elevation
Blue Lakes 0 in 8000 ft
Leavitt Lake 0 in 9400 ft
Leavitt Meadows 0 in 7200 ft
Summit Meadow 0 in 9122 ft
Adin Mountain 0 in 6200 ft

Earthquake Activity

City Distance Mag. Time & Date
The Geysers, California 8 miles 2.6 8:55 PM PDT
2014-08-13
Minimum magnitude displayed is 2.5.

Coastal Water Temperatures

Place Temperature
Point Reyes, CA 60.1 °F
Arena Cove, CA 57.9 °F
San Francisco, CA 64.0 °F
Richmond, CA 66.0 °F

Nearby Weather Stations